Flight Track Log - Related Links

Times and Time Zones

All times are in EDT time to prevent confusion due to time zone crossing. See the N450HC flight status page for this flight to view local times or setup timezone preferences in your user account.


Time Position Orientation Groundspeed Altitude Reporting Facility
EDT Latitude Longitude Course Direction KTS MPH feet Rate Location/Type
Fri 06:07:03 PM 42.3833 -71.0000 294° West 127 146 600  Level KA90
Fri 06:08:15 PM 42.4000 -71.0500 294° West 162 186 2,900 1,526 Climbing KA90
Fri 06:09:56 PM 42.3703 -71.1503 248° West 181 208 5,000 1,304 Climbing Boston Center
Fri 06:10:56 PM 42.3458 -71.2153 243° Southwest 187 215 6,400 1,200 Climbing Boston Center
Fri 06:11:56 PM 42.3383 -71.2828 261° West 187 215 7,400 850 Climbing Boston Center
Fri 06:12:56 PM 42.3367 -71.3333 267° West 193 222 8,100 1,100 Climbing Boston Center
Fri 06:13:56 PM 42.3311 -71.4178 265° West 191 220 9,600 1,400 Climbing Boston Center
Fri 06:14:56 PM 42.3319 -71.4964 271° West 191 220 10,900 1,150 Climbing Boston Center
Fri 06:15:56 PM 42.3242 -71.5639 261° West 196 226 11,900 1,000 Climbing Boston Center
Fri 06:16:56 PM 42.3206 -71.6369 266° West 201 231 12,900 1,000 Climbing Boston Center
Fri 06:17:56 PM 42.3147 -71.7214 265° West 201 231 13,900 900 Climbing Boston Center
Fri 06:18:56 PM 42.3089 -71.7889 263° West 201 231 14,700 550 Climbing Boston Center
Fri 06:19:56 PM 42.3031 -71.8786 265° West 213 245 15,000 136 Climbing Boston Center
Fri 06:21:08 PM 42.2828 -71.9631 252° West 230 265 15,000  Level Boston Center
Fri 06:22:08 PM 42.2622 -72.0669 255° West 248 285 15,000  Level Boston Center
Fri 06:23:08 PM 42.2625 -72.1567 270° West 240 276 15,000 200 Level Boston Center
Fri 06:24:08 PM 42.2689 -72.2436 276° West 235 270 15,400 409 Climbing Boston Center
Fri 06:25:20 PM 42.2711 -72.3333 272° West 225 259 15,900 273 Climbing Boston Center
Fri 06:26:20 PM 42.2753 -72.4261 274° West 225 259 16,000 50 Climbing Boston Center
Fri 06:27:20 PM 42.2775 -72.5047 272° West 236 272 16,000  Level Boston Center
Fri 06:28:20 PM 42.2814 -72.6000 273° West 236 272 16,000  Level Boston Center
Fri 06:29:20 PM 42.2833 -72.6897 272° West 236 272 16,000  Level Boston Center
Fri 06:30:20 PM 42.2875 -72.7711 274° West 236 272 16,000  Level Boston Center
Fri 06:31:20 PM 42.2892 -72.8694 271° West 236 272 16,000  Level Boston Center
Fri 06:32:20 PM 42.2908 -72.9508 272° West 236 272 16,000  Level Boston Center
Fri 06:33:20 PM 42.3008 -73.0492 278° West 236 272 16,000  Level Boston Center
Fri 06:34:20 PM 42.3086 -73.1278 278° West 236 272 16,000 -350 Level Boston Center
Fri 06:35:20 PM 42.3164 -73.2292 276° West 236 272 15,300 -950 Descending Boston Center
Fri 06:36:20 PM 42.3261 -73.3219 278° West 257 296 14,100 -1,150 Descending Boston Center
Fri 06:37:20 PM 42.3314 -73.4369 274° West 276 318 13,000 -900 Descending Boston Center
Fri 06:38:20 PM 42.3389 -73.5214 277° West 266 306 12,300 -455 Descending Boston Center
Fri 06:39:32 PM 42.3464 -73.6200 276° West 254 292 12,000 -182 Descending Boston Center
Fri 06:40:32 PM 42.3536 -73.7128 276° West 238 274 11,900  Descending Boston Center
Fri 06:41:32 PM 42.3608 -73.8083 276° West 231 266 12,000 50 Climbing Boston Center
Fri 06:42:32 PM 42.3683 -73.8817 278° West 231 266 12,000  Level Boston Center
Fri 06:43:32 PM 42.3733 -73.9744 274° West 236 272 12,000  Level Boston Center
Fri 06:44:32 PM 42.3786 -74.0506 275° West 236 272 12,000 -50 Level Boston Center
Fri 06:45:32 PM 42.3875 -74.1436 277° West 236 272 11,900 -50 Descending Boston Center
Fri 06:46:32 PM 42.3928 -74.2194 275° West 230 265 11,900  Level Boston Center
Fri 06:47:32 PM 42.3994 -74.3125 276° West 230 265 11,900  Level Boston Center
Fri 06:48:32 PM 42.4044 -74.3886 275° West 230 265 11,900  Level Boston Center
Fri 06:49:32 PM 42.4111 -74.4817 276° West 230 265 11,900  Level Boston Center
Fri 06:50:32 PM 42.4161 -74.5550 275° West 230 265 11,900  Level Boston Center
Fri 06:51:32 PM 42.4247 -74.6508 277° West 235 270 11,900  Level Boston Center
Fri 06:52:32 PM 42.4294 -74.7242 275° West 235 270 11,900 -750 Level Boston Center
Fri 06:53:32 PM 42.4358 -74.8172 275° West 257 296 10,400 -1,500 Descending Boston Center
Fri 06:54:32 PM 42.4442 -74.9244 276° West 264 304 8,900 -1,050 Descending Boston Center
Fri 06:55:32 PM 42.4506 -75.0119 276° West 257 296 8,300 -682 Descending Boston Center
Fri 06:56:44 PM 42.4569 -75.0967 276° West 243 280 7,400 -1,182 Descending Boston Center
Fri 06:57:44 PM 42.4650 -75.1956 276° West 237 273 5,700 -1,500 Descending Boston Center
Fri 06:58:44 PM 42.4814 -75.2892 283° West 237 273 4,400 -750 Descending Boston Center
Fri 06:59:44 PM 42.5086 -75.3636 296° West 231 266 4,200 -100 Descending Boston Center
Fri 07:00:44 PM 42.5194 -75.4261 283° West 206 237 4,200 -250 Level Boston Center
Fri 07:01:44 PM 42.5097 -75.4850 257° West 163 188 3,700 -900 Descending Boston Center
Fri 07:02:44 PM 42.5081 -75.5411 268° West 145 167 2,400 250 Descending Boston Center
Fri 07:03:44 PM 42.5067 -75.5975 268° West 145 167 4,200 900 Climbing Boston Center
Fri 07:04:44 PM 42.5050 -75.6536 268° West 145 167 4,200  Level Boston Center
Fri 07:05:44 PM 42.5606 -75.5297 59° Northeast 145 167 4,200  Level Boston Center
Fri 07:06:44 PM 42.5644 -75.5383 302° West 145 167 4,200  Level Boston Center
Fri 07:07:44 PM 42.5972 -75.6331 295° West 145 167 4,200  Level Boston Center
Fri 07:08:44 PM 42.6322 -75.7253 297° West 145 167 4,200  Level Boston Center
Fri 07:09:44 PM 42.6592 -75.8000 296° West 145 167 4,200  Level Boston Center
Fri 07:10:44 PM 42.5667 -75.5328 115° Southeast 145 167 4,200  Level Boston Center
Fri 07:11:44 PM 42.5667 -75.5328 154° Southeast 145 167 4,200  Level Boston Center

Login

Don't have an account? Register now (free) for customized features, flight alerts, and more!